Time;durP1;ratioP1;P1;durP2;ratioP2;P2;SDS_P1;SDS_P2;PMS_P1;PMS_P2;Temp;Humidity;BMP_temperature;BMP_pressure;BME280_temperature;BME280_humidity;BME280_pressure;Samples;Min_cycle;Max_cycle;Signal;HPM_P1;HPM_P2
2021/12/13 00:02:37;;;;;;;7.22;5.38;;;;;;;2.84;70.92;99839.63;5105653;28;20089;-66
2021/12/13 00:05:16;;;;;;;7.45;5.55;;;;;;;2.84;71.25;99844.84;5105632;28;20260;-67
2021/12/13 00:07:54;;;;;;;6.72;5.03;;;;;;;2.87;71.14;99836.97;5105598;28;20070;-66
2021/12/13 00:10:34;;;;;;;7.85;5.70;;;;;;;2.85;71.15;99825.66;5105557;28;20059;-66
2021/12/13 00:13:13;;;;;;;6.22;4.55;;;;;;;2.88;71.17;99826.47;5105119;28;20079;-66
2021/12/13 00:15:52;;;;;;;7.32;4.75;;;;;;;2.91;71.09;99825.53;5105516;28;20066;-66
2021/12/13 00:18:29;;;;;;;6.10;4.78;;;;;;;2.91;70.67;99814.22;5106055;28;20070;-66
2021/12/13 00:21:07;;;;;;;5.50;4.20;;;;;;;2.92;70.59;99821.16;5105224;28;20059;-66
2021/12/13 00:23:49;;;;;;;8.43;5.35;;;;;;;2.92;70.82;99814.19;5105169;28;20063;-66
2021/12/13 00:26:28;;;;;;;5.75;4.82;;;;;;;2.93;70.72;99810.66;5105145;28;20277;-67
2021/12/13 00:29:10;;;;;;;6.45;5.00;;;;;;;2.95;70.66;99802.78;5105333;28;20081;-66
2021/12/13 00:31:51;;;;;;;7.78;4.82;;;;;;;2.88;70.84;99808.13;5105120;28;20067;-66
2021/12/13 00:34:32;;;;;;;6.53;4.88;;;;;;;2.91;70.64;99801.97;5105289;28;20071;-67
2021/12/13 00:37:10;;;;;;;7.38;5.10;;;;;;;1.79;70.74;99627.69;5105041;28;20059;-66
2021/12/13 00:39:48;;;;;;;7.40;5.70;;;;;;;2.92;70.55;99816.78;5104300;28;20070;-66
2021/12/13 00:42:24;;;;;;;6.82;5.38;;;;;;;2.95;70.44;99821.13;5104922;28;20350;-66
2021/12/13 00:45:05;;;;;;;5.80;4.18;;;;;;;2.95;70.60;99813.25;5105229;28;20055;-66
2021/12/13 00:47:42;;;;;;;6.05;4.38;;;;;;;2.98;70.37;99815.81;5105206;28;20248;-67
2021/12/13 00:50:20;;;;;;;6.70;4.63;;;;;;;2.99;70.28;99825.41;5104914;28;20060;-66
2021/12/13 00:52:55;;;;;;;7.55;5.70;;;;;;;2.97;70.53;99830.69;5107743;28;20082;-66
2021/12/13 00:55:32;;;;;;;6.43;4.38;;;;;;;2.99;70.47;99830.66;5108666;28;20070;-67
2021/12/13 00:58:10;;;;;;;6.07;4.70;;;;;;;3.01;70.25;99834.97;5108646;28;20059;-67
2021/12/13 01:00:51;;;;;;;6.40;4.70;;;;;;;3.03;70.36;99837.56;5108075;28;20060;-67
2021/12/13 01:03:28;;;;;;;5.45;4.45;;;;;;;3.03;70.33;99848.91;5108526;28;20304;-67
2021/12/13 01:06:36;;;;;;;6.13;4.97;;;;;;;3.06;70.45;99841.00;5108768;28;20063;-66
2021/12/13 01:09:58;;;;;;;7.35;4.82;;;;;;;3.09;70.52;99845.31;5108348;28;20059;-65
2021/12/13 01:12:31;;;;;;;6.50;4.35;;;;;;;3.07;70.16;99847.09;5030086;28;20080;-65
2021/12/13 01:15:10;;;;;;;5.00;3.80;;;;;;;3.14;70.06;99844.34;5098262;28;20089;-65
2021/12/13 01:17:54;;;;;;;5.63;4.43;;;;;;;3.12;70.17;99840.88;5108516;28;20068;-65
2021/12/13 01:20:43;;;;;;;5.93;4.53;;;;;;;3.14;69.94;99836.50;5108166;28;20070;-67
2021/12/13 01:23:28;;;;;;;7.53;4.70;;;;;;;3.16;69.95;99837.31;5108060;28;20059;-65
2021/12/13 01:26:25;;;;;;;10.20;5.72;;;;;;;3.17;69.96;99843.44;5108095;28;20059;-65
2021/12/13 01:29:05;;;;;;;6.85;5.53;;;;;;;3.17;69.91;99854.78;5107255;28;20055;-65
2021/12/13 01:31:41;;;;;;;6.65;4.95;;;;;;;3.19;70.02;99855.59;5107676;28;20251;-65
2021/12/13 01:34:17;;;;;;;6.05;4.22;;;;;;;3.17;70.19;99849.53;5107782;28;20330;-65
2021/12/13 01:37:02;;;;;;;6.93;5.43;;;;;;;3.16;70.26;99854.78;5108063;28;20070;-65
2021/12/13 01:39:38;;;;;;;7.03;5.40;;;;;;;3.19;69.99;99859.97;5108375;28;20056;-64
2021/12/13 01:42:15;;;;;;;6.45;4.75;;;;;;;3.23;69.98;99850.31;5108011;28;20070;-65
2021/12/13 01:44:51;;;;;;;7.25;5.50;;;;;;;3.23;70.19;99853.81;5107892;28;20082;-64
2021/12/13 01:47:35;;;;;;;7.55;5.03;;;;;;;3.09;70.33;99833.09;5107607;28;20059;-65
2021/12/13 01:50:16;;;;;;;6.80;5.50;;;;;;;3.21;70.23;99852.97;5106993;28;20075;-65
2021/12/13 01:52:52;;;;;;;7.50;5.40;;;;;;;3.27;70.01;99854.59;5107512;28;20070;-65
2021/12/13 01:55:30;;;;;;;6.95;6.07;;;;;;;3.29;69.94;99853.69;5107408;28;20319;-65
2021/12/13 01:58:26;;;;;;;6.90;5.18;;;;;;;3.27;70.36;99845.00;5107416;28;20060;-65
2021/12/13 02:01:11;;;;;;;6.30;5.40;;;;;;;3.26;70.39;99850.25;5107632;28;20070;-65
2021/12/13 02:03:54;;;;;;;7.10;6.18;;;;;;;2.44;70.49;99725.13;5106484;28;20063;-65
2021/12/13 02:06:37;;;;;;;7.18;5.38;;;;;;;3.23;70.79;99845.06;5107198;28;20059;-65
2021/12/13 02:09:16;;;;;;;7.03;5.57;;;;;;;3.22;70.73;99848.59;5107690;28;20059;-65
2021/12/13 02:11:53;;;;;;;6.40;5.40;;;;;;;3.23;70.62;99839.84;5107386;28;20071;-65
2021/12/13 02:14:31;;;;;;;6.38;5.18;;;;;;;3.23;70.63;99843.31;5106741;28;20071;-65
2021/12/13 02:17:10;;;;;;;7.07;5.05;;;;;;;3.22;71.08;99843.34;5107015;28;20070;-65
2021/12/13 02:19:49;;;;;;;7.05;5.07;;;;;;;3.24;71.14;99838.94;5106984;28;20123;-65
2021/12/13 02:22:43;;;;;;;6.82;5.53;;;;;;;3.24;71.16;99850.28;5106107;28;20075;-65
2021/12/13 02:25:22;;;;;;;6.47;5.10;;;;;;;3.27;70.83;99844.13;5107135;28;20063;-65
2021/12/13 02:28:01;;;;;;;5.63;4.10;;;;;;;3.26;71.13;99835.41;5106095;28;20322;-65
2021/12/13 02:30:40;;;;;;;5.60;4.55;;;;;;;3.30;71.03;99836.22;5107052;28;20229;-65
2021/12/13 02:33:18;;;;;;;6.38;4.03;;;;;;;3.29;70.97;99850.22;5106990;28;20168;-65
2021/12/13 02:35:52;;;;;;;5.50;4.90;;;;;;;3.27;71.26;99859.84;5106548;28;20082;-65
2021/12/13 02:38:26;;;;;;;6.15;4.50;;;;;;;3.25;71.28;99852.00;5106630;28;20060;-65
2021/12/13 02:41:00;;;;;;;6.18;4.53;;;;;;;3.28;71.29;99849.34;5106808;28;20070;-66
2021/12/13 02:43:40;;;;;;;5.65;4.22;;;;;;;3.29;71.41;99847.59;5106540;28;20067;-66
2021/12/13 02:46:14;;;;;;;5.25;4.38;;;;;;;2.48;71.10;99747.72;5106696;28;20060;-65
2021/12/13 02:48:50;;;;;;;5.50;4.18;;;;;;;3.30;71.22;99847.56;5106701;28;20072;-65
2021/12/13 02:51:27;;;;;;;5.55;3.92;;;;;;;3.30;71.32;99857.16;5106699;28;20059;-66
2021/12/13 02:54:07;;;;;;;5.47;4.03;;;;;;;3.25;72.31;99854.63;5106253;28;20059;-65
2021/12/13 02:56:45;;;;;;;5.07;4.03;;;;;;;3.31;71.90;99853.66;5106256;28;20056;-65
2021/12/13 02:59:20;;;;;;;4.50;3.72;;;;;;;3.25;72.24;99853.78;5107049;28;20176;-65
2021/12/13 03:01:58;;;;;;;4.82;3.78;;;;;;;3.26;72.33;99866.84;5106204;28;20347;-65
2021/12/13 03:04:32;;;;;;;4.70;3.78;;;;;;;3.25;72.41;99869.50;5106387;28;20078;-65
2021/12/13 03:07:09;;;;;;;3.90;2.95;;;;;;;3.22;72.57;99875.66;5106394;28;20078;-65
2021/12/13 03:09:46;;;;;;;4.30;3.35;;;;;;;3.24;72.97;99876.47;5106354;28;20070;-65
2021/12/13 03:12:23;;;;;;;4.63;2.80;;;;;;;3.23;73.13;99874.75;5105187;28;20299;-65
2021/12/13 03:14:59;;;;;;;3.90;2.72;;;;;;;3.22;73.45;99873.03;5105652;28;20257;-65
2021/12/13 03:17:37;;;;;;;4.00;3.05;;;;;;;3.19;73.24;99863.47;5105959;28;20056;-65
2021/12/13 03:20:26;;;;;;;3.63;3.03;;;;;;;3.14;74.68;99867.06;5105885;28;20070;-66
2021/12/13 03:23:12;;;;;;;5.18;3.45;;;;;;;2.85;74.48;99823.03;5105861;28;20244;-65
2021/12/13 03:26:22;;;;;;;3.45;2.42;;;;;;;3.16;74.83;99870.50;5106071;28;20233;-65
2021/12/13 03:29:07;;;;;;;3.63;2.75;;;;;;;3.10;74.96;99865.38;5105034;28;20059;-65
2021/12/13 03:31:44;;;;;;;3.50;2.50;;;;;;;3.06;74.75;99880.28;5106014;28;20070;-64
2021/12/13 03:34:19;;;;;;;3.80;2.33;;;;;;;2.82;74.91;99834.41;5106252;28;20096;-65
2021/12/13 03:36:59;;;;;;;2.90;2.08;;;;;;;3.09;75.07;99880.22;5105626;28;20059;-65
2021/12/13 03:39:36;;;;;;;3.05;2.22;;;;;;;2.90;74.66;99852.63;5105855;28;20315;-65
2021/12/13 03:42:13;;;;;;;3.40;2.50;;;;;;;3.12;74.69;99884.53;5105826;28;20040;-65
2021/12/13 03:44:48;;;;;;;2.80;2.35;;;;;;;3.11;74.53;99886.31;5105793;28;20312;-65
2021/12/13 03:47:24;;;;;;;3.58;2.63;;;;;;;3.06;75.41;99882.91;5105783;28;20047;-66
2021/12/13 03:49:59;;;;;;;3.03;2.10;;;;;;;3.07;75.56;99875.91;5105738;28;20047;-66
2021/12/13 03:52:32;;;;;;;2.92;2.35;;;;;;;3.03;76.08;99884.69;5105691;28;20288;-65
2021/12/13 03:55:06;;;;;;;3.75;2.50;;;;;;;3.02;76.07;99889.06;5105613;28;20050;-65
2021/12/13 03:57:47;;;;;;;2.75;2.00;;;;;;;2.75;76.33;99835.41;5105682;28;20040;-65
2021/12/13 04:00:23;;;;;;;2.45;1.73;;;;;;;2.98;76.59;99874.31;5105583;28;20059;-65
2021/12/13 04:02:58;;;;;;;2.70;1.92;;;;;;;2.97;76.37;99875.19;5105558;28;20040;-65
2021/12/13 04:05:31;;;;;;;2.53;1.90;;;;;;;2.99;76.32;99872.53;5105292;28;20063;-65
2021/12/13 04:08:06;;;;;;;3.05;1.92;;;;;;;2.98;76.38;99876.06;5105311;28;20074;-66
2021/12/13 04:10:42;;;;;;;2.33;1.80;;;;;;;2.97;76.29;99877.81;5105298;28;20040;-66
2021/12/13 04:13:21;;;;;;;3.10;2.10;;;;;;;2.96;77.12;99876.06;5105214;28;20052;-66
2021/12/13 04:16:03;;;;;;;2.70;1.70;;;;;;;2.94;77.13;99883.09;5104936;28;20048;-66
2021/12/13 04:19:06;;;;;;;2.40;1.80;;;;;;;2.94;77.28;99882.22;5105176;28;20044;-66
2021/12/13 04:21:48;;;;;;;3.00;1.95;;;;;;;2.93;77.30;99888.34;5105510;28;20047;-66
2021/12/13 04:24:27;;;;;;;3.08;1.92;;;;;;;2.94;77.18;99879.59;5105397;28;20051;-66
2021/12/13 04:27:03;;;;;;;3.28;2.05;;;;;;;2.94;76.91;99883.09;5106498;28;20329;-66
2021/12/13 04:29:41;;;;;;;2.75;1.85;;;;;;;2.95;77.14;99881.34;5109431;28;20047;-66
2021/12/13 04:32:17;;;;;;;3.10;2.22;;;;;;;2.96;77.09;99883.94;5109309;28;20284;-66
2021/12/13 04:34:52;;;;;;;5.18;1.92;;;;;;;2.94;77.15;99879.59;5109034;28;20242;-66
2021/12/13 04:37:28;;;;;;;2.45;1.90;;;;;;;2.48;77.67;99807.03;5108980;28;20296;-66
2021/12/13 04:40:06;;;;;;;2.70;1.95;;;;;;;2.94;77.77;99877.00;5108960;28;20051;-66
2021/12/13 04:42:39;;;;;;;2.65;2.15;;;;;;;2.93;78.07;99877.88;5109142;28;20047;-66
2021/12/13 04:45:16;;;;;;;4.03;2.00;;;;;;;2.44;77.78;99800.13;5109097;28;20039;-66
2021/12/13 04:47:55;;;;;;;2.80;2.30;;;;;;;2.98;77.60;99865.56;5108822;28;20089;-65
2021/12/13 04:50:30;;;;;;;3.53;2.53;;;;;;;2.98;77.26;99869.06;5108719;28;20051;-66
2021/12/13 04:53:02;;;;;;;;;;;;;;;2.94;78.73;99874.38;5109144;28;20047;-66
2021/12/13 04:55:38;;;;;;;4.35;2.67;;;;;;;2.93;77.86;99877.88;5108582;28;19931;-66
2021/12/13 04:58:14;;;;;;;2.80;2.15;;;;;;;2.96;77.52;99875.22;5108603;28;20258;-66
2021/12/13 05:00:52;;;;;;;4.10;2.30;;;;;;;1.94;77.31;99706.75;5108809;28;20051;-66
2021/12/13 05:03:26;;;;;;;3.15;2.20;;;;;;;2.99;77.89;99889.13;5108503;28;20204;-66
2021/12/13 05:05:59;;;;;;;2.95;2.00;;;;;;;3.04;77.34;99894.28;5108425;28;20327;-66
2021/12/13 05:08:28;;;;;;;3.63;2.67;;;;;;;3.05;77.45;99898.63;5108436;28;20113;-66
2021/12/13 05:11:02;;;;;;;3.40;2.38;;;;;;;3.07;77.48;99894.22;5108378;28;20040;-66
2021/12/13 05:13:39;;;;;;;3.00;2.30;;;;;;;3.06;77.71;99897.75;5107991;28;20331;-66
2021/12/13 05:16:13;;;;;;;3.17;2.58;;;;;;;3.06;77.74;99896.00;5108077;28;20044;-66
2021/12/13 05:18:49;;;;;;;3.35;2.40;;;;;;;2.50;77.23;99813.13;5108141;28;20040;-66
2021/12/13 05:21:27;;;;;;;3.55;2.50;;;;;;;3.08;77.93;99906.44;5108216;28;20047;-66
2021/12/13 05:24:04;;;;;;;3.08;2.38;;;;;;;3.07;77.70;99913.44;5108389;28;20036;-66
2021/12/13 05:26:39;;;;;;;3.30;2.42;;;;;;;2.80;78.08;99870.22;5108066;28;20051;-65
2021/12/13 05:29:24;;;;;;;3.55;2.10;;;;;;;3.06;78.50;99911.69;5107943;28;20036;-66
2021/12/13 05:32:05;;;;;;;3.53;2.55;;;;;;;3.06;78.57;99918.69;5108263;28;20040;-66
2021/12/13 05:34:42;;;;;;;2.95;1.90;;;;;;;3.06;78.16;99919.56;5106988;28;20036;-65
2021/12/13 05:37:15;;;;;;;3.85;2.63;;;;;;;3.08;78.51;99923.00;5108009;28;20051;-66
2021/12/13 05:39:57;;;;;;;4.28;2.63;;;;;;;3.05;79.04;99927.44;5106713;28;20315;-66
2021/12/13 05:42:38;;;;;;;3.10;2.40;;;;;;;3.07;78.76;99933.53;5108028;28;20047;-66
2021/12/13 05:45:14;;;;;;;3.53;2.10;;;;;;;3.10;78.53;99931.72;5107721;28;20315;-66
2021/12/13 05:48:03;;;;;;;2.67;2.00;;;;;;;3.08;79.03;99930.00;5107911;28;20040;-66
2021/12/13 05:50:39;;;;;;;3.00;1.92;;;;;;;3.09;78.42;99937.84;5107675;28;20047;-67
2021/12/13 05:53:14;;;;;;;2.78;2.03;;;;;;;3.12;78.18;99939.56;5106973;28;20048;-66
2021/12/13 05:55:55;;;;;;;3.53;2.35;;;;;;;3.13;78.18;99939.53;5107408;28;20040;-67
2021/12/13 05:58:34;;;;;;;3.17;1.90;;;;;;;3.14;78.66;99936.00;5107805;28;20044;-67
2021/12/13 06:01:15;;;;;;;3.13;2.30;;;;;;;2.91;78.38;99898.84;5107857;28;20102;-68
2021/12/13 06:03:54;;;;;;;2.88;2.00;;;;;;;3.12;79.04;99950.03;5107617;28;20284;-66
2021/12/13 06:06:28;;;;;;;3.17;2.42;;;;;;;3.13;78.79;99939.53;5107683;28;20081;-65
2021/12/13 06:09:01;;;;;;;3.10;2.20;;;;;;;3.15;78.60;99944.75;5107701;28;20040;-65
2021/12/13 06:11:34;;;;;;;2.60;1.90;;;;;;;3.15;78.70;99950.84;5107146;28;20040;-65
2021/12/13 06:14:16;;;;;;;3.40;2.30;;;;;;;3.12;79.33;99942.16;5107010;28;20437;-66
2021/12/13 06:17:03;;;;;;;3.13;2.10;;;;;;;3.12;79.29;99940.41;5106458;28;20300;-66
2021/12/13 06:19:40;;;;;;;2.50;1.80;;;;;;;3.11;79.25;99946.53;5107008;28;20040;-66
2021/12/13 06:22:15;;;;;;;2.95;2.10;;;;;;;3.12;79.08;99952.66;5106948;28;20200;-66
2021/12/13 06:24:56;;;;;;;3.25;2.20;;;;;;;3.10;79.62;99951.81;5107327;28;20227;-66
2021/12/13 06:27:31;;;;;;;3.55;1.95;;;;;;;3.07;79.51;99959.72;5107023;28;20358;-66
2021/12/13 06:30:08;;;;;;;3.85;3.08;;;;;;;3.09;79.39;99956.19;5107171;28;20097;-66
2021/12/13 06:32:48;;;;;;;3.42;2.05;;;;;;;3.08;79.60;99951.81;5106885;28;20208;-67
2021/12/13 06:35:48;;;;;;;3.10;2.10;;;;;;;3.13;79.82;99955.25;5106708;28;20040;-66
2021/12/13 06:38:42;;;;;;;3.30;2.25;;;;;;;3.13;79.81;99968.34;5106655;28;20052;-66
2021/12/13 06:41:21;;;;;;;2.88;2.05;;;;;;;3.13;79.36;99968.34;5106895;28;20062;-66
2021/12/13 06:43:55;;;;;;;2.85;1.92;;;;;;;3.10;79.48;99968.38;5106645;28;20040;-66
2021/12/13 06:46:49;;;;;;;2.60;1.97;;;;;;;3.12;80.06;99978.84;5106486;28;20350;-66
2021/12/13 06:49:29;;;;;;;26.42;17.35;;;;;;;3.19;79.84;99975.22;5105843;28;20383;-67
2021/12/13 06:52:06;;;;;;;6.40;4.50;;;;;;;2.93;79.65;99932.88;5106882;28;20040;-67
2021/12/13 06:54:42;;;;;;;4.07;2.58;;;;;;;3.17;79.49;99980.50;5106798;28;20040;-67
2021/12/13 06:57:18;;;;;;;3.22;2.22;;;;;;;3.19;79.29;99983.97;5106385;28;20058;-67
2021/12/13 06:59:53;;;;;;;2.60;1.95;;;;;;;3.19;79.36;99991.81;5106407;28;20101;-67
2021/12/13 07:02:27;;;;;;;2.95;2.00;;;;;;;2.18;79.14;99826.66;5106553;28;20040;-67
2021/12/13 07:05:04;;;;;;;2.42;1.80;;;;;;;3.22;79.32;99997.91;5106568;28;20040;-67
2021/12/13 07:07:41;;;;;;;4.47;2.20;;;;;;;3.22;79.25;99997.91;5106266;28;20085;-66
2021/12/13 07:10:16;;;;;;;2.97;2.30;;;;;;;3.22;79.46;100000.50;5106186;28;20284;-67
2021/12/13 07:12:53;;;;;;;3.20;2.10;;;;;;;3.23;79.29;99999.63;5106242;28;20036;-67
2021/12/13 07:15:40;;;;;;;6.82;2.75;;;;;;;3.26;79.55;100007.44;5106249;28;20036;-66
2021/12/13 07:18:19;;;;;;;4.07;2.40;;;;;;;2.97;78.95;99960.72;5106298;28;20040;-66
2021/12/13 07:20:56;;;;;;;5.15;3.20;;;;;;;3.26;79.18;100007.44;5106304;28;20048;-66
2021/12/13 07:23:28;;;;;;;6.10;2.75;;;;;;;3.27;79.03;100009.16;5105954;28;20207;-66
2021/12/13 07:25:56;;;;;;;5.25;3.33;;;;;;;3.29;79.09;100013.50;5105989;28;20088;-66
2021/12/13 07:28:31;;;;;;;5.50;2.97;;;;;;;3.22;79.75;100021.47;5105926;28;20040;-67
2021/12/13 07:31:07;;;;;;;6.40;4.25;;;;;;;3.24;79.72;100020.56;5105834;28;20153;-66
2021/12/13 07:33:42;;;;;;;4.30;3.25;;;;;;;3.24;79.58;100019.69;5106009;28;20089;-67
2021/12/13 07:36:18;;;;;;;4.93;3.10;;;;;;;3.24;79.60;100020.56;5105658;28;20040;-67
2021/12/13 07:38:56;;;;;;;3.85;3.05;;;;;;;3.25;79.73;100031.91;5105793;28;20094;-66
2021/12/13 07:41:42;;;;;;;5.57;3.95;;;;;;;3.26;80.07;100029.25;5105754;28;20039;-66
2021/12/13 07:44:27;;;;;;;3.97;3.28;;;;;;;3.28;79.77;100027.50;5105920;28;20074;-66
2021/12/13 07:47:01;;;;;;;4.57;3.88;;;;;;;3.28;79.80;100037.09;5105888;28;20089;-66
2021/12/13 07:49:36;;;;;;;4.95;3.53;;;;;;;3.28;79.59;100045.81;5105758;28;20093;-66
2021/12/13 07:52:09;;;;;;;4.68;3.28;;;;;;;3.31;79.38;100037.91;5105268;28;20040;-66
2021/12/13 07:54:43;;;;;;;4.38;3.38;;;;;;;3.31;79.92;100045.78;5105812;28;20039;-66
2021/12/13 07:57:20;;;;;;;3.72;3.25;;;;;;;3.34;79.85;100047.50;5105711;28;20044;-66
2021/12/13 07:59:54;;;;;;;4.82;3.28;;;;;;;3.31;79.95;100051.03;5105504;28;20089;-67
2021/12/13 08:02:31;;;;;;;3.30;2.78;;;;;;;3.03;80.07;100000.78;5107578;28;20296;-67
2021/12/13 08:05:11;;;;;;;5.78;3.83;;;;;;;3.33;79.87;100041.38;5109590;28;20040;-67
2021/12/13 08:07:46;;;;;;;4.60;2.65;;;;;;;3.34;80.41;100043.13;5109617;28;20093;-67
2021/12/13 08:10:24;;;;;;;4.18;2.63;;;;;;;3.34;80.10;100042.25;5109380;28;20280;-66
2021/12/13 08:13:00;;;;;;;4.07;2.67;;;;;;;3.35;80.24;100046.59;5109466;28;20064;-67
2021/12/13 08:15:40;;;;;;;3.53;2.45;;;;;;;3.37;80.13;100040.44;5109559;28;20145;-67
2021/12/13 08:18:23;;;;;;;4.85;2.85;;;;;;;3.39;80.47;100045.66;5109501;28;20040;-67
2021/12/13 08:20:58;;;;;;;2.85;2.13;;;;;;;3.39;79.74;100041.28;5109338;28;20040;-67
2021/12/13 08:23:35;;;;;;;3.03;2.00;;;;;;;3.45;79.65;100043.81;5108662;28;20117;-67
2021/12/13 08:26:14;;;;;;;3.15;2.00;;;;;;;3.46;79.60;100042.06;5109395;28;20090;-66
2021/12/13 08:28:49;;;;;;;3.95;2.72;;;;;;;3.45;79.53;100049.06;5109301;28;20043;-66
2021/12/13 08:31:25;;;;;;;3.28;2.47;;;;;;;3.44;79.95;100046.47;5109480;28;20040;-67
2021/12/13 08:34:00;;;;;;;2.47;1.80;;;;;;;2.77;79.85;99998.53;5109094;28;20147;-67
2021/12/13 08:36:36;;;;;;;2.90;2.10;;;;;;;3.43;80.21;100042.97;5109184;28;20089;-66
2021/12/13 08:39:11;;;;;;;2.75;2.25;;;;;;;3.43;80.32;100050.84;5109033;28;20047;-67
2021/12/13 08:41:48;;;;;;;3.42;2.15;;;;;;;3.45;80.07;100050.81;5109226;28;20089;-67
2021/12/13 08:44:23;;;;;;;3.63;2.00;;;;;;;3.48;80.16;100046.38;5108927;28;20284;-67
2021/12/13 08:46:59;;;;;;;2.47;1.77;;;;;;;3.49;80.27;100053.38;5108976;28;20058;-67
2021/12/13 08:49:36;;;;;;;3.58;2.30;;;;;;;3.50;80.23;100051.59;5108599;28;20098;-67
2021/12/13 08:52:22;;;;;;;2.78;1.80;;;;;;;3.50;80.65;100059.47;5108640;28;20040;-67
2021/12/13 08:55:00;;;;;;;3.25;1.75;;;;;;;3.52;80.14;100055.94;5108684;28;20089;-67
2021/12/13 08:57:45;;;;;;;2.40;1.67;;;;;;;3.51;80.25;100062.06;5108989;28;20043;-67
2021/12/13 09:00:25;;;;;;;2.80;2.20;;;;;;;3.52;80.43;100061.19;5109057;28;20239;-67
2021/12/13 09:03:02;;;;;;;3.10;1.90;;;;;;;3.56;80.37;100069.00;5107584;28;20247;-66
2021/12/13 09:05:39;;;;;;;2.50;2.13;;;;;;;3.57;80.05;100070.72;5108854;28;20051;-67
2021/12/13 09:08:14;;;;;;;3.00;1.88;;;;;;;3.59;80.01;100067.19;5108672;28;20141;-67
2021/12/13 09:10:50;;;;;;;3.15;2.25;;;;;;;3.34;80.06;100068.44;5108350;28;20048;-67
2021/12/13 09:13:41;;;;;;;4.95;3.38;;;;;;;3.62;80.16;100069.75;5108021;28;20064;-67
2021/12/13 09:16:18;;;;;;;6.20;3.38;;;;;;;3.65;79.52;100072.34;5108287;28;20289;-67
2021/12/13 09:19:12;;;;;;;4.10;2.40;;;;;;;3.67;79.75;100072.31;5108371;28;20346;-67
2021/12/13 09:21:52;;;;;;;4.20;2.45;;;;;;;3.67;79.67;100056.59;5108063;28;20040;-67
2021/12/13 09:24:39;;;;;;;3.75;3.00;;;;;;;3.73;79.18;100072.22;5108297;28;20036;-67
2021/12/13 09:27:18;;;;;;;6.18;3.00;;;;;;;3.75;79.18;100070.44;5107853;28;20040;-66
2021/12/13 09:29:56;;;;;;;3.53;2.53;;;;;;;3.76;79.06;100065.16;5108219;28;20036;-67
2021/12/13 09:32:35;;;;;;;3.95;2.75;;;;;;;3.76;79.35;100054.69;5107853;28;20040;-67
2021/12/13 09:35:28;;;;;;;3.40;2.55;;;;;;;3.80;79.17;100085.19;5107909;28;20044;-67
2021/12/13 09:38:18;;;;;;;2.67;2.03;;;;;;;3.81;78.95;100055.47;5107768;28;20063;-67
2021/12/13 09:40:55;;;;;;;3.72;2.65;;;;;;;3.87;78.69;100059.75;5107640;28;20304;-67
2021/12/13 09:43:39;;;;;;;3.92;3.20;;;;;;;3.92;78.61;100062.28;5107872;28;20284;-67
2021/12/13 09:46:13;;;;;;;;;;;;;;;3.91;78.87;100056.19;5108054;28;20040;-67
2021/12/13 09:48:49;;;;;;;5.13;2.72;;;;;;;3.94;78.48;100061.38;5107622;28;19916;-67
2021/12/13 09:51:25;;;;;;;3.38;2.30;;;;;;;3.75;78.33;100015.38;5107353;28;20081;-67
2021/12/13 09:54:02;;;;;;;6.30;2.75;;;;;;;4.05;78.05;100054.19;5107797;28;20101;-67
2021/12/13 09:56:39;;;;;;;5.50;2.47;;;;;;;4.08;78.20;100066.38;5107547;28;20296;-67
2021/12/13 09:59:19;;;;;;;3.78;2.67;;;;;;;4.13;77.97;100047.03;5107233;28;20040;-67
2021/12/13 10:01:55;;;;;;;4.07;2.83;;;;;;;4.13;77.78;100062.78;5107263;28;20094;-67
2021/12/13 10:04:35;;;;;;;3.63;2.47;;;;;;;4.16;77.44;100052.22;5107013;28;20089;-67
2021/12/13 10:07:10;;;;;;;3.65;2.05;;;;;;;4.22;77.50;100055.69;5107110;28;20363;-67
2021/12/13 10:09:45;;;;;;;3.30;2.72;;;;;;;4.02;77.34;100012.28;5107411;28;20289;-67
2021/12/13 10:12:21;;;;;;;3.15;2.55;;;;;;;4.34;77.11;100058.06;5106649;28;20040;-67
2021/12/13 10:14:56;;;;;;;5.43;3.10;;;;;;;4.31;77.19;100045.88;5106583;28;20060;-67
2021/12/13 10:17:34;;;;;;;6.05;2.83;;;;;;;2.28;76.81;99701.84;5106639;28;20085;-67
2021/12/13 10:20:12;;;;;;;3.30;2.53;;;;;;;4.31;76.90;100053.75;5107001;28;20036;-67
2021/12/13 10:22:45;;;;;;;3.40;2.55;;;;;;;4.30;76.74;100048.53;5107229;28;20040;-67
2021/12/13 10:25:22;;;;;;;3.22;1.80;;;;;;;4.32;76.65;100044.13;5106142;28;20035;-67
2021/12/13 10:27:55;;;;;;;2.70;1.80;;;;;;;4.34;76.75;100047.56;5106828;28;20093;-67
2021/12/13 10:30:32;;;;;;;3.95;2.78;;;;;;;4.32;76.55;100055.47;5106657;28;20062;-67
2021/12/13 10:33:07;;;;;;;3.90;2.10;;;;;;;4.29;76.83;100052.03;5106567;28;20097;-67
2021/12/13 10:35:40;;;;;;;;;;;;;;;4.24;77.09;100053.88;5106183;28;20082;-67
2021/12/13 10:38:16;;;;;;;2.40;1.80;;;;;;;4.24;77.00;100057.38;5106852;28;20233;-67
2021/12/13 10:40:54;;;;;;;6.40;3.05;;;;;;;4.23;77.37;100057.41;5106478;28;20051;-67
2021/12/13 10:43:31;;;;;;;4.97;2.10;;;;;;;4.22;77.21;100055.69;5106126;28;20341;-67
2021/12/13 10:46:07;;;;;;;6.22;2.67;;;;;;;4.21;77.28;100056.56;5106054;28;20039;-67
2021/12/13 10:48:45;;;;;;;3.42;2.10;;;;;;;3.27;77.25;99894.78;5106327;28;20054;-67
2021/12/13 10:51:20;;;;;;;3.72;2.50;;;;;;;4.22;77.19;100058.31;5106210;28;20040;-67
2021/12/13 10:53:54;;;;;;;3.80;1.90;;;;;;;4.24;77.49;100060.00;5106499;28;20089;-67
2021/12/13 10:56:29;;;;;;;2.65;1.85;;;;;;;4.25;77.32;100053.84;5106466;28;20040;-67
2021/12/13 10:59:05;;;;;;;3.65;2.40;;;;;;;3.20;77.45;99890.53;5106349;28;20212;-67
2021/12/13 11:01:40;;;;;;;3.67;2.42;;;;;;;4.23;77.62;100045.16;5106215;28;20040;-67
2021/12/13 11:04:17;;;;;;;4.53;2.08;;;;;;;4.26;77.66;100050.34;5105979;28;20081;-67
2021/12/13 11:06:50;;;;;;;3.13;1.80;;;;;;;4.31;77.46;100048.50;5106031;28;20040;-67
2021/12/13 11:09:25;;;;;;;4.88;2.05;;;;;;;4.30;77.74;100048.53;5106801;28;20092;-68
2021/12/13 11:12:03;;;;;;;3.45;2.00;;;;;;;4.32;77.86;100047.59;5105741;28;20062;-67
2021/12/13 11:14:38;;;;;;;3.00;2.30;;;;;;;4.33;77.84;100053.72;5105327;28;20056;-67
2021/12/13 11:17:15;;;;;;;4.57;2.50;;;;;;;4.33;77.81;100051.09;5105761;28;20039;-67
2021/12/13 11:19:51;;;;;;;4.85;3.38;;;;;;;4.33;77.96;100059.84;5105804;28;20040;-68
2021/12/13 11:22:28;;;;;;;3.97;2.72;;;;;;;4.37;77.80;100055.38;5105863;28;20227;-67
2021/12/13 11:25:08;;;;;;;4.20;2.65;;;;;;;4.36;78.14;100056.28;5105808;28;20284;-67
2021/12/13 11:27:40;;;;;;;3.08;2.15;;;;;;;4.38;77.99;100044.00;5106285;28;20093;-67
2021/12/13 11:30:15;;;;;;;3.10;2.30;;;;;;;4.41;78.13;100049.19;5105889;28;20044;-67
2021/12/13 11:33:32;;;;;;;4.75;2.70;;;;;;;4.38;78.88;100047.50;5106020;28;20338;-67
2021/12/13 11:36:39;;;;;;;3.65;2.13;;;;;;;4.37;79.24;100048.38;5063929;28;20052;-67
2021/12/13 11:39:46;;;;;;;2.63;1.77;;;;;;;4.38;79.10;100047.50;5105713;28;20043;-66
2021/12/13 11:42:46;;;;;;;4.25;2.80;;;;;;;4.40;79.14;100050.94;5105477;28;20039;-66
2021/12/13 11:45:42;;;;;;;4.35;2.80;;;;;;;4.40;78.94;100039.59;5105433;28;20048;-67
2021/12/13 11:48:34;;;;;;;3.92;2.47;;;;;;;4.36;78.91;100049.28;5105628;28;20080;-67
2021/12/13 11:51:33;;;;;;;3.33;2.38;;;;;;;4.24;78.58;100027.66;5105230;28;20259;-67
2021/12/13 11:54:54;;;;;;;3.60;2.72;;;;;;;4.35;79.14;100049.31;5105641;28;20043;-67
2021/12/13 11:57:59;;;;;;;7.03;3.33;;;;;;;4.39;78.75;100041.34;5061927;28;20047;-66
2021/12/13 12:00:49;;;;;;;4.78;3.10;;;;;;;4.38;78.86;100039.63;5105345;28;20185;-67
2021/12/13 12:04:00;;;;;;;4.32;3.35;;;;;;;3.86;78.81;99945.25;5105380;28;20085;-67
2021/12/13 12:07:05;;;;;;;5.05;2.83;;;;;;;4.35;78.75;100036.19;5105450;28;20097;-67
2021/12/13 12:09:58;;;;;;;5.63;3.10;;;;;;;4.33;79.05;100033.59;5105372;28;20284;-67
2021/12/13 12:12:58;;;;;;;4.40;2.60;;;;;;;4.36;79.08;100036.16;5104588;28;20039;-67
2021/12/13 12:15:34;;;;;;;4.47;2.55;;;;;;;4.32;79.12;100037.09;5064747;28;20090;-66
2021/12/13 12:18:12;;;;;;;4.47;2.33;;;;;;;4.28;79.14;100034.56;5064888;28;20064;-67
2021/12/13 12:20:49;;;;;;;3.97;2.88;;;;;;;4.30;78.87;100040.66;5064763;28;20045;-67
2021/12/13 12:23:30;;;;;;;4.35;2.92;;;;;;;4.30;79.68;100035.41;5064920;28;20202;-66
2021/12/13 12:26:03;;;;;;;4.15;2.28;;;;;;;4.29;79.37;100033.69;5064147;28;20117;-66
2021/12/13 12:28:37;;;;;;;4.47;2.55;;;;;;;4.04;79.33;99994.75;5064931;28;20052;-67
2021/12/13 12:31:05;;;;;;;3.80;2.20;;;;;;;4.27;79.32;100036.31;5064160;28;20114;-66
2021/12/13 12:33:38;;;;;;;3.03;2.25;;;;;;;4.26;79.41;100031.97;5064823;28;20037;-66
2021/12/13 12:36:20;;;;;;;4.25;2.40;;;;;;;4.28;79.43;100030.19;5065129;28;20080;-67
2021/12/13 12:39:56;;;;;;;5.95;3.33;;;;;;;4.27;79.60;100027.59;5064265;28;20049;-66